• Join FlightAware (Why Join?)
  • Login
  • US Flag 
10:03AM EDT


 

Airport Tracker/Info


-or-


 

Live Flight TrackerFlight Track Log ✈ VNR169 ✈ 11-Jun-2013 ✈ KBCB - KTEB

Flight Track Log - Related Links

Times and Time Zones

All times are in EDT time to prevent confusion due to time zone crossing. See the VNR169 flight status page for this flight to view local times or setup timezone preferences in your user account.

Time Position Orientation Groundspeed Altitude Reporting Facility
EDT Latitude Longitude Course Direction KTS MPH feet Rate Location/Type
06:29PM 37.4094 -79.9456 60° Northeast  Level FlightAware Approximate
06:30PM 37.4437 -79.8689 61° Northeast  Level FlightAware Approximate
06:31PM 37.4779 -79.7921 61° Northeast  Level FlightAware Approximate
06:32PM 37.5121 -79.7152 61° Northeast  Level FlightAware Approximate
06:33PM 37.5391 -79.6339 67° East  Level FlightAware Approximate
06:34PM 37.5660 -79.5525 67° East  Level FlightAware Approximate
06:35PM 37.5965 -79.4725 59° Northeast  Level FlightAware Approximate
06:36PM 37.6326 -79.3970 59° Northeast  Level FlightAware Approximate
06:37PM 37.6686 -79.3213 59° Northeast  Level FlightAware Approximate
06:37PM 37.7167 -79.2167 62° Northeast 294 338 5,900  Level Potomac TRACON
06:38PM 37.7046 -79.2456 59° Northeast  Level FlightAware Approximate
06:38PM 37.7500 -79.1333 63° Northeast 283 326 5,900  Level Potomac TRACON
06:39PM 37.7406 -79.1698 59° Northeast  Level FlightAware Approximate
06:39PM 37.8000 -79.0500 53° Northeast 286 329 5,900  Level Potomac TRACON
06:40PM 37.7742 -79.0923 62° Northeast  Level FlightAware Approximate
06:40PM 37.8333 -78.9500 67° East 292 336 5,900  Level Potomac TRACON
06:41PM 37.8069 -79.0141 62° Northeast  Level FlightAware Approximate
06:41PM 37.8667 -78.8667 63° Northeast 281 323 5,300  Level Potomac TRACON
06:42PM 37.8395 -78.9359 62° Northeast  Level FlightAware Approximate
06:42PM 37.9000 -78.7833 63° Northeast 274 315 4,900  Level Potomac TRACON
06:43PM 37.9500 -78.7000 53° Northeast 275 316 4,900  Level Potomac TRACON
06:44PM 37.9833 -78.6167 63° Northeast 271 312 4,900  Level Potomac TRACON
06:45PM 38.0167 -78.5167 67° East 277 319 4,900  Level Potomac TRACON
06:46PM 38.0500 -78.4500 58° Northeast 283 326 4,900  Level Potomac TRACON
06:47PM 38.0833 -78.3500 67° East 283 326 4,900  Level Potomac TRACON
06:48PM 38.1167 -78.2667 63° Northeast 283 326 4,900  Level Potomac TRACON
06:49PM 38.1667 -78.1667 58° Northeast 284 327 4,900  Level Potomac TRACON
06:50PM 38.1500 -78.0667 102° East 292 336 4,900  Level Potomac TRACON
06:51PM 38.1333 -77.9667 102° East 292 336 4,900  Level Potomac TRACON
06:52PM 38.1167 -77.8667 102° East 292 336 4,900  Level Potomac TRACON
06:53PM 38.1000 -77.7833 104° East 293 337 4,900  Level Potomac TRACON
06:54PM 38.0833 -77.6833 102° East 307 353 5,000  Climbing Potomac TRACON
06:55PM 38.0333 -77.6000 127° Southeast 289 333 5,000  Level Potomac TRACON
06:56PM 37.9833 -77.5167 127° Southeast 297 342 5,000  Level Potomac TRACON
06:57PM 37.9333 -77.4333 127° Southeast 303 349 5,000  Level Potomac TRACON
06:58PM 37.9167 -77.3333 102° East 295 339 5,000  Level Potomac TRACON
06:59PM 37.9333 -77.2333 78° East 292 336 5,000  Level Potomac TRACON
07:00PM 37.9500 -77.1333 78° East 290 334 5,000  Level Potomac TRACON
07:01PM 37.9500 -77.0333 90° East 299 344 5,000  Level Potomac TRACON
07:01PM 37.9542 -77.0086 78° East 293 337 5,000  Level Washington Center
07:02PM 37.9658 -76.8983 82° East 291 335 5,000  Level Washington Center
07:03PM 37.9961 -76.8117 66° East 284 327 5,000  Level Washington Center
07:04PM 38.0553 -76.7361 45° Northeast 280 322 5,000  Level Washington Center
07:05PM 38.0994 -76.6656 51° Northeast 282 325 5,000  Level Washington Center
07:06PM 38.1544 -76.5925 46° Northeast 284 327 5,000  Level Washington Center
07:07PM 38.2008 -76.5269 48° Northeast 284 327 5,000  Level Washington Center
07:08PM 38.2578 -76.4483 47° Northeast 284 327 5,000  Level Washington Center
07:09PM 38.3167 -76.3750 44° Northeast 294 338 5,000  Level Washington Center
07:10PM 38.3794 -76.3200 34° Northeast 277 319 5,000  Level Washington Center
07:11PM 38.4381 -76.2650 36° Northeast 280 322 5,000  Level Washington Center
07:13PM 38.5833 -76.1167 39° Northeast 278 320 5,000  Level Potomac TRACON
07:14PM 38.6500 -76.0667 30° Northeast 280 322 5,100  Climbing Potomac TRACON
07:15PM 38.7167 -76.0000 38° Northeast 280 322 5,100 -60 Level Potomac TRACON
07:17PM 38.8000 -75.9100 32° Northeast  Level FlightAware Approximate
07:22PM 39.1667 -75.7000 352° North 264 304 5,000  Level Philadelphia TRACON
07:23PM 39.2667 -75.6833 North 260 299 5,000  Level Philadelphia TRACON
07:24PM 39.2575 -75.5102 349° North  Level FlightAware Approximate
07:24PM 39.3333 -75.6667 11° North 260 299 5,000  Level Philadelphia TRACON
07:25PM 39.3369 -75.5301 349° North  Level FlightAware Approximate
07:25PM 39.4000 -75.6500 11° North 261 300 5,000  Level Philadelphia TRACON
07:26PM 39.4157 -75.5529 352° North  Level FlightAware Approximate
07:26PM 39.4833 -75.6333 North 264 304 5,000  Level Philadelphia TRACON
07:27PM 39.4958 -75.5679 352° North  Level FlightAware Approximate
07:27PM 39.5500 -75.6333 360° North 262 302 5,000  Level Philadelphia TRACON
07:28PM 39.6333 -75.6167 North 262 302 5,000  Level Philadelphia TRACON
07:29PM 39.6833 -75.6000 14° North 257 296 5,000  Level Philadelphia TRACON
07:30PM 39.7667 -75.5833 North 258 297 5,000  Level Philadelphia TRACON
07:31PM 39.8333 -75.5500 21° North 261 300 5,000  Level Philadelphia TRACON
07:32PM 39.9000 -75.5333 11° North 261 300 5,000  Level Philadelphia TRACON
07:33PM 39.9667 -75.4833 30° Northeast 278 320 5,000  Level Philadelphia TRACON
07:34PM 40.0333 -75.4167 37° Northeast 276 318 5,000  Level Philadelphia TRACON
07:35PM 40.0833 -75.3333 52° Northeast 279 321 5,000  Level Philadelphia TRACON
07:36PM 40.1333 -75.2667 46° Northeast 277 319 5,000  Level Philadelphia TRACON
07:37PM 40.1833 -75.2167 37° Northeast 280 322 5,000 -360 Level Philadelphia TRACON
07:39PM 40.3000 -75.0833 41° Northeast 277 319 4,000 -360 Descending New York TRACON
07:40PM 40.3667 -75.0167 37° Northeast 277 319 4,000  Level New York TRACON
07:41PM 40.4167 -74.9500 45° Northeast 272 313 4,000  Level New York TRACON
07:42PM 40.4667 -74.8833 45° Northeast 281 323 4,000  Level New York TRACON
07:43PM 40.5333 -74.8000 44° Northeast 278 320 4,000  Level New York TRACON
07:44PM 40.5833 -74.7500 37° Northeast 261 300 4,000  Level New York TRACON
07:45PM 40.6333 -74.6833 45° Northeast 250 288 4,100 -300 Climbing New York TRACON
07:46PM 40.6833 -74.6167 45° Northeast 267 307 3,400 -540 Descending New York TRACON
07:47PM 40.7333 -74.5500 45° Northeast 268 308 3,100 -180 Descending New York TRACON
07:48PM 40.7833 -74.4833 45° Northeast 256 295 3,100  Level New York TRACON
07:49PM 40.8333 -74.4167 45° Northeast 233 268 3,100  Level New York TRACON
07:50PM 40.8833 -74.3500 45° Northeast 251 289 3,100  Level New York TRACON
07:51PM 40.9333 -74.2667 52° Northeast 276 318 3,100 -300 Level New York TRACON
07:52PM 40.9500 -74.1667 78° East 294 338 2,500 -540 Descending New York TRACON
07:53PM 40.9667 -74.0667 78° East 285 328 2,100 -600 Descending New York TRACON
07:54PM 40.9167 -74.0167 143° Southeast 214 246 1,400 -720 Descending New York TRACON
07:55PM 40.8833 -74.0333 201° Southwest 138 159 700 -720 Descending New York TRACON
07:57PM 40.8500 -74.0500 201° Southwest  Level FlightAware Approximate
08:04PM 40.8501 -74.0608 201° Southwest  Level Estimated
08:05PM 40.8501 -74.0608 201° Southwest  Level Estimated